To NAV CANADA Home Page Login to a new session Search on AWWS site Feedback and Comments Disclaimer Vers la page française équivalente Tips FAQ What's new on the site To the Forecasts and Observations / NOTAM section To "File a Flight Plan" website Publications and other links Update of the User's profile FIC Telephone Numbers My Weather Data Folder Route Weather Data Regional Weather Data Local Weather Data To the Forecasts and Observations / NOTAM section
Request Generated 07/06/2015 at 11:32:40 UTC . Weather information available at that time is displayed.

METAR/TAF

HALIFAX/SHEARWATER/NS    

METAR CYAW 061100Z 35007KT 15SM FEW270 17/15 A3009 RMK CI0 DA475FT SLP190=
METAR CYAW 061000Z 01004KT 15SM SCT270 16/15 A3008 RMK CI1 DA301FT SLP187=
METAR CYAW 060900Z 31004KT 15SM FEW110 FEW270 16/15 A3006 RMK AC1CI0 DA343FT FST OBS SLP180=

TAF CYAW 061010Z 0610/0622 VRB03KT P6SM SCT270
FM061900 24008KT P6SM BKN040
RMK NXT FCST BY 061400Z=
Your time UTC time
Weather data provided by Environment Canada and NAV CANADA